sensor_id;sensor_type;location;lat;lon;timestamp;temperature;humidity
5276;DHT22;2661;50.786;12.728;2023-07-28T00:01:32;16.60;99.90
5276;DHT22;2661;50.786;12.728;2023-07-28T00:03:58;16.60;99.90
5276;DHT22;2661;50.786;12.728;2023-07-28T00:06:25;16.60;99.90
5276;DHT22;2661;50.786;12.728;2023-07-28T00:08:52;16.60;99.90
5276;DHT22;2661;50.786;12.728;2023-07-28T00:11:18;16.60;99.90
5276;DHT22;2661;50.786;12.728;2023-07-28T00:13:45;16.60;99.90
5276;DHT22;2661;50.786;12.728;2023-07-28T00:16:12;16.70;99.90
5276;DHT22;2661;50.786;12.728;2023-07-28T00:18:38;16.70;99.90
5276;DHT22;2661;50.786;12.728;2023-07-28T00:21:05;16.70;99.90
5276;DHT22;2661;50.786;12.728;2023-07-28T00:23:31;16.60;99.90
5276;DHT22;2661;50.786;12.728;2023-07-28T00:25:58;16.60;99.90
5276;DHT22;2661;50.786;12.728;2023-07-28T00:28:25;16.50;99.90
5276;DHT22;2661;50.786;12.728;2023-07-28T00:30:51;16.50;1.00
5276;DHT22;2661;50.786;12.728;2023-07-28T00:33:18;16.50;1.00
5276;DHT22;2661;50.786;12.728;2023-07-28T00:35:45;16.60;1.00
5276;DHT22;2661;50.786;12.728;2023-07-28T00:38:12;16.70;99.90
5276;DHT22;2661;50.786;12.728;2023-07-28T00:40:38;16.70;99.90
5276;DHT22;2661;50.786;12.728;2023-07-28T00:43:05;16.60;99.90
5276;DHT22;2661;50.786;12.728;2023-07-28T00:45:33;16.60;99.90
5276;DHT22;2661;50.786;12.728;2023-07-28T00:48:00;16.60;1.00
5276;DHT22;2661;50.786;12.728;2023-07-28T00:50:27;16.60;99.90
5276;DHT22;2661;50.786;12.728;2023-07-28T00:52:54;16.60;1.00
5276;DHT22;2661;50.786;12.728;2023-07-28T00:55:22;16.50;1.00
5276;DHT22;2661;50.786;12.728;2023-07-28T00:57:48;16.50;1.00
5276;DHT22;2661;50.786;12.728;2023-07-28T01:00:15;16.50;1.00
5276;DHT22;2661;50.786;12.728;2023-07-28T01:02:42;16.50;1.00
5276;DHT22;2661;50.786;12.728;2023-07-28T01:05:10;16.50;1.00
5276;DHT22;2661;50.786;12.728;2023-07-28T01:10:11;16.50;1.00
5276;DHT22;2661;50.786;12.728;2023-07-28T01:12:39;16.50;1.00
5276;DHT22;2661;50.786;12.728;2023-07-28T01:15:06;16.50;1.00
5276;DHT22;2661;50.786;12.728;2023-07-28T01:17:32;16.50;1.00
5276;DHT22;2661;50.786;12.728;2023-07-28T01:19:59;16.60;1.00
5276;DHT22;2661;50.786;12.728;2023-07-28T01:22:46;16.50;1.00
5276;DHT22;2661;50.786;12.728;2023-07-28T01:27:55;16.50;1.00
5276;DHT22;2661;50.786;12.728;2023-07-28T01:30:22;16.50;1.00
5276;DHT22;2661;50.786;12.728;2023-07-28T01:32:55;16.50;1.00
5276;DHT22;2661;50.786;12.728;2023-07-28T01:35:23;16.50;1.00
5276;DHT22;2661;50.786;12.728;2023-07-28T01:37:49;16.50;1.00
5276;DHT22;2661;50.786;12.728;2023-07-28T01:40:19;16.40;1.00
5276;DHT22;2661;50.786;12.728;2023-07-28T01:42:46;16.40;1.00
5276;DHT22;2661;50.786;12.728;2023-07-28T01:45:13;16.40;1.00
5276;DHT22;2661;50.786;12.728;2023-07-28T01:47:39;16.40;1.00
5276;DHT22;2661;50.786;12.728;2023-07-28T01:50:06;16.40;1.00
5276;DHT22;2661;50.786;12.728;2023-07-28T01:52:33;16.40;1.00
5276;DHT22;2661;50.786;12.728;2023-07-28T01:54:59;16.30;1.00
5276;DHT22;2661;50.786;12.728;2023-07-28T01:57:26;16.40;1.00
5276;DHT22;2661;50.786;12.728;2023-07-28T01:59:54;16.40;1.00
5276;DHT22;2661;50.786;12.728;2023-07-28T02:02:21;16.30;1.00
5276;DHT22;2661;50.786;12.728;2023-07-28T02:04:47;16.40;1.00
5276;DHT22;2661;50.786;12.728;2023-07-28T02:07:14;16.40;1.00
5276;DHT22;2661;50.786;12.728;2023-07-28T02:09:41;16.30;1.00
5276;DHT22;2661;50.786;12.728;2023-07-28T02:12:07;16.40;1.00
5276;DHT22;2661;50.786;12.728;2023-07-28T02:14:34;16.30;1.00
5276;DHT22;2661;50.786;12.728;2023-07-28T02:17:01;16.30;1.00
5276;DHT22;2661;50.786;12.728;2023-07-28T02:19:27;16.30;1.00
5276;DHT22;2661;50.786;12.728;2023-07-28T02:21:54;16.30;1.00
5276;DHT22;2661;50.786;12.728;2023-07-28T02:24:20;16.30;1.00
5276;DHT22;2661;50.786;12.728;2023-07-28T02:26:47;16.30;1.00
5276;DHT22;2661;50.786;12.728;2023-07-28T02:29:14;16.30;1.00
5276;DHT22;2661;50.786;12.728;2023-07-28T02:31:40;16.30;1.00
5276;DHT22;2661;50.786;12.728;2023-07-28T02:34:07;16.30;1.00
5276;DHT22;2661;50.786;12.728;2023-07-28T02:36:34;16.30;1.00
5276;DHT22;2661;50.786;12.728;2023-07-28T02:39:01;16.30;1.00
5276;DHT22;2661;50.786;12.728;2023-07-28T02:41:27;16.30;1.00
5276;DHT22;2661;50.786;12.728;2023-07-28T02:43:54;16.30;1.00
5276;DHT22;2661;50.786;12.728;2023-07-28T02:46:20;16.30;1.00
5276;DHT22;2661;50.786;12.728;2023-07-28T02:48:47;16.30;1.00
5276;DHT22;2661;50.786;12.728;2023-07-28T02:51:14;16.30;1.00
5276;DHT22;2661;50.786;12.728;2023-07-28T02:53:40;16.30;1.00
5276;DHT22;2661;50.786;12.728;2023-07-28T02:56:07;16.30;1.00
5276;DHT22;2661;50.786;12.728;2023-07-28T02:58:34;16.30;1.00
5276;DHT22;2661;50.786;12.728;2023-07-28T03:01:00;16.30;1.00
5276;DHT22;2661;50.786;12.728;2023-07-28T03:03:27;16.30;1.00
5276;DHT22;2661;50.786;12.728;2023-07-28T03:05:54;16.30;1.00
5276;DHT22;2661;50.786;12.728;2023-07-28T03:08:20;16.30;1.00
5276;DHT22;2661;50.786;12.728;2023-07-28T03:10:47;16.30;1.00
5276;DHT22;2661;50.786;12.728;2023-07-28T03:13:14;16.30;1.00
5276;DHT22;2661;50.786;12.728;2023-07-28T03:15:40;16.30;1.00
5276;DHT22;2661;50.786;12.728;2023-07-28T03:18:07;16.30;1.00
5276;DHT22;2661;50.786;12.728;2023-07-28T03:20:33;16.30;1.00
5276;DHT22;2661;50.786;12.728;2023-07-28T03:23:00;16.30;1.00
5276;DHT22;2661;50.786;12.728;2023-07-28T03:25:27;16.30;1.00
5276;DHT22;2661;50.786;12.728;2023-07-28T03:27:53;16.30;1.00
5276;DHT22;2661;50.786;12.728;2023-07-28T03:30:20;16.20;1.00
5276;DHT22;2661;50.786;12.728;2023-07-28T03:32:47;16.30;1.00
5276;DHT22;2661;50.786;12.728;2023-07-28T03:35:13;16.30;1.00
5276;DHT22;2661;50.786;12.728;2023-07-28T03:37:40;16.30;1.00
5276;DHT22;2661;50.786;12.728;2023-07-28T03:40:07;16.20;1.00
5276;DHT22;2661;50.786;12.728;2023-07-28T03:42:33;16.20;1.00
5276;DHT22;2661;50.786;12.728;2023-07-28T03:45:00;16.20;1.00
5276;DHT22;2661;50.786;12.728;2023-07-28T03:47:27;16.30;1.00
5276;DHT22;2661;50.786;12.728;2023-07-28T03:49:54;16.30;1.00
5276;DHT22;2661;50.786;12.728;2023-07-28T03:52:20;16.30;1.00
5276;DHT22;2661;50.786;12.728;2023-07-28T03:54:47;16.30;1.00
5276;DHT22;2661;50.786;12.728;2023-07-28T03:57:13;16.30;1.00
5276;DHT22;2661;50.786;12.728;2023-07-28T03:59:40;16.30;1.00
5276;DHT22;2661;50.786;12.728;2023-07-28T04:02:07;16.30;1.00
5276;DHT22;2661;50.786;12.728;2023-07-28T04:04:34;16.30;1.00
5276;DHT22;2661;50.786;12.728;2023-07-28T04:07:01;16.30;1.00
5276;DHT22;2661;50.786;12.728;2023-07-28T04:09:28;16.30;1.00
5276;DHT22;2661;50.786;12.728;2023-07-28T04:11:55;16.30;1.00
5276;DHT22;2661;50.786;12.728;2023-07-28T04:14:21;16.30;1.00
5276;DHT22;2661;50.786;12.728;2023-07-28T04:16:48;16.30;1.00
5276;DHT22;2661;50.786;12.728;2023-07-28T04:19:14;16.30;1.00
5276;DHT22;2661;50.786;12.728;2023-07-28T04:21:41;16.30;1.00
5276;DHT22;2661;50.786;12.728;2023-07-28T04:24:08;16.30;1.00
5276;DHT22;2661;50.786;12.728;2023-07-28T04:26:35;16.30;1.00
5276;DHT22;2661;50.786;12.728;2023-07-28T04:29:02;16.30;1.00
5276;DHT22;2661;50.786;12.728;2023-07-28T04:31:29;16.30;1.00
5276;DHT22;2661;50.786;12.728;2023-07-28T04:33:56;16.40;1.00
5276;DHT22;2661;50.786;12.728;2023-07-28T04:36:22;16.40;1.00
5276;DHT22;2661;50.786;12.728;2023-07-28T04:38:49;16.40;1.00
5276;DHT22;2661;50.786;12.728;2023-07-28T04:41:16;16.40;1.00
5276;DHT22;2661;50.786;12.728;2023-07-28T04:43:42;16.40;1.00
5276;DHT22;2661;50.786;12.728;2023-07-28T04:46:09;16.50;1.00
5276;DHT22;2661;50.786;12.728;2023-07-28T04:48:36;16.50;1.00
5276;DHT22;2661;50.786;12.728;2023-07-28T04:51:02;16.60;1.00
5276;DHT22;2661;50.786;12.728;2023-07-28T04:53:29;16.60;1.00
5276;DHT22;2661;50.786;12.728;2023-07-28T04:55:55;16.70;1.00
5276;DHT22;2661;50.786;12.728;2023-07-28T04:58:22;16.70;1.00
5276;DHT22;2661;50.786;12.728;2023-07-28T05:00:49;16.70;1.00
5276;DHT22;2661;50.786;12.728;2023-07-28T05:03:15;16.70;1.00
5276;DHT22;2661;50.786;12.728;2023-07-28T05:05:45;16.70;1.00
5276;DHT22;2661;50.786;12.728;2023-07-28T05:08:12;16.80;1.00
5276;DHT22;2661;50.786;12.728;2023-07-28T05:10:40;16.70;1.00
5276;DHT22;2661;50.786;12.728;2023-07-28T05:13:07;16.80;1.00
5276;DHT22;2661;50.786;12.728;2023-07-28T05:15:33;16.70;1.00
5276;DHT22;2661;50.786;12.728;2023-07-28T05:18:00;16.70;1.00
5276;DHT22;2661;50.786;12.728;2023-07-28T05:20:27;16.70;1.00
5276;DHT22;2661;50.786;12.728;2023-07-28T05:22:53;16.70;1.00
5276;DHT22;2661;50.786;12.728;2023-07-28T05:25:20;16.70;1.00
5276;DHT22;2661;50.786;12.728;2023-07-28T05:27:46;16.80;1.00
5276;DHT22;2661;50.786;12.728;2023-07-28T05:30:13;16.80;1.00
5276;DHT22;2661;50.786;12.728;2023-07-28T05:32:40;16.80;1.00
5276;DHT22;2661;50.786;12.728;2023-07-28T05:35:06;16.70;1.00
5276;DHT22;2661;50.786;12.728;2023-07-28T05:37:33;16.70;1.00
5276;DHT22;2661;50.786;12.728;2023-07-28T05:40:00;16.70;1.00
5276;DHT22;2661;50.786;12.728;2023-07-28T05:42:26;16.70;1.00
5276;DHT22;2661;50.786;12.728;2023-07-28T05:44:53;16.90;1.00
5276;DHT22;2661;50.786;12.728;2023-07-28T05:47:21;16.90;1.00
5276;DHT22;2661;50.786;12.728;2023-07-28T05:49:48;16.90;1.00
5276;DHT22;2661;50.786;12.728;2023-07-28T05:52:15;17.00;1.00
5276;DHT22;2661;50.786;12.728;2023-07-28T05:54:41;16.90;1.00
5276;DHT22;2661;50.786;12.728;2023-07-28T05:57:08;17.00;1.00
5276;DHT22;2661;50.786;12.728;2023-07-28T05:59:34;17.00;1.00
5276;DHT22;2661;50.786;12.728;2023-07-28T06:02:01;17.00;1.00
5276;DHT22;2661;50.786;12.728;2023-07-28T06:04:28;17.10;1.00
5276;DHT22;2661;50.786;12.728;2023-07-28T06:06:54;17.10;99.90
5276;DHT22;2661;50.786;12.728;2023-07-28T06:09:21;17.20;99.90
5276;DHT22;2661;50.786;12.728;2023-07-28T06:11:47;17.20;99.90
5276;DHT22;2661;50.786;12.728;2023-07-28T06:14:14;17.30;99.90
5276;DHT22;2661;50.786;12.728;2023-07-28T06:16:41;17.30;99.90
5276;DHT22;2661;50.786;12.728;2023-07-28T06:19:07;17.40;99.90
5276;DHT22;2661;50.786;12.728;2023-07-28T06:21:35;17.50;99.90
5276;DHT22;2661;50.786;12.728;2023-07-28T06:24:02;17.50;24.30
5276;DHT22;2661;50.786;12.728;2023-07-28T06:26:28;17.60;1.00
5276;DHT22;2661;50.786;12.728;2023-07-28T06:28:55;17.70;1.00
5276;DHT22;2661;50.786;12.728;2023-07-28T06:31:22;17.60;1.00
5276;DHT22;2661;50.786;12.728;2023-07-28T06:33:49;17.70;1.00
5276;DHT22;2661;50.786;12.728;2023-07-28T06:36:15;17.70;1.00
5276;DHT22;2661;50.786;12.728;2023-07-28T06:38:42;17.90;99.90
5276;DHT22;2661;50.786;12.728;2023-07-28T06:41:12;17.90;1.00
5276;DHT22;2661;50.786;12.728;2023-07-28T06:43:39;18.00;99.90
5276;DHT22;2661;50.786;12.728;2023-07-28T06:46:05;18.10;99.90
5276;DHT22;2661;50.786;12.728;2023-07-28T06:48:32;18.10;1.00
5276;DHT22;2661;50.786;12.728;2023-07-28T06:50:59;18.20;99.90
5276;DHT22;2661;50.786;12.728;2023-07-28T06:53:25;18.30;99.90
5276;DHT22;2661;50.786;12.728;2023-07-28T06:55:52;18.40;28.90
5276;DHT22;2661;50.786;12.728;2023-07-28T06:58:19;18.40;30.60
5276;DHT22;2661;50.786;12.728;2023-07-28T07:00:46;18.40;1.00
5276;DHT22;2661;50.786;12.728;2023-07-28T07:03:12;18.40;1.00
5276;DHT22;2661;50.786;12.728;2023-07-28T07:05:39;18.40;99.90
5276;DHT22;2661;50.786;12.728;2023-07-28T07:08:06;18.40;99.90
5276;DHT22;2661;50.786;12.728;2023-07-28T07:10:33;18.30;99.90
5276;DHT22;2661;50.786;12.728;2023-07-28T07:12:59;18.40;1.00
5276;DHT22;2661;50.786;12.728;2023-07-28T07:15:26;18.40;1.00
5276;DHT22;2661;50.786;12.728;2023-07-28T07:17:53;18.40;1.00
5276;DHT22;2661;50.786;12.728;2023-07-28T07:20:20;18.40;53.00
5276;DHT22;2661;50.786;12.728;2023-07-28T07:22:47;18.30;99.90
5276;DHT22;2661;50.786;12.728;2023-07-28T07:25:13;18.30;99.90
5276;DHT22;2661;50.786;12.728;2023-07-28T07:27:40;18.30;96.50
5276;DHT22;2661;50.786;12.728;2023-07-28T07:30:07;18.30;99.90
5276;DHT22;2661;50.786;12.728;2023-07-28T07:32:34;18.30;1.00
5276;DHT22;2661;50.786;12.728;2023-07-28T07:35:01;18.30;65.80
5276;DHT22;2661;50.786;12.728;2023-07-28T07:37:28;18.30;99.90
5276;DHT22;2661;50.786;12.728;2023-07-28T07:39:54;18.40;99.90
5276;DHT22;2661;50.786;12.728;2023-07-28T07:42:21;18.40;99.90
5276;DHT22;2661;50.786;12.728;2023-07-28T07:44:48;18.60;99.90
5276;DHT22;2661;50.786;12.728;2023-07-28T07:47:15;18.80;99.90
5276;DHT22;2661;50.786;12.728;2023-07-28T07:49:42;19.00;1.00
5276;DHT22;2661;50.786;12.728;2023-07-28T07:52:09;19.20;1.00
5276;DHT22;2661;50.786;12.728;2023-07-28T07:54:36;19.40;99.90
5276;DHT22;2661;50.786;12.728;2023-07-28T07:57:03;19.50;99.90
5276;DHT22;2661;50.786;12.728;2023-07-28T07:59:30;19.50;99.90
5276;DHT22;2661;50.786;12.728;2023-07-28T08:02:02;19.50;99.90
5276;DHT22;2661;50.786;12.728;2023-07-28T08:04:30;19.60;99.90
5276;DHT22;2661;50.786;12.728;2023-07-28T08:06:57;19.70;99.90
5276;DHT22;2661;50.786;12.728;2023-07-28T08:09:24;19.80;99.90
5276;DHT22;2661;50.786;12.728;2023-07-28T08:11:51;19.90;99.90
5276;DHT22;2661;50.786;12.728;2023-07-28T08:14:19;20.00;99.90
5276;DHT22;2661;50.786;12.728;2023-07-28T08:16:45;20.00;1.00
5276;DHT22;2661;50.786;12.728;2023-07-28T08:19:12;20.10;1.00
5276;DHT22;2661;50.786;12.728;2023-07-28T08:21:40;20.20;1.00
5276;DHT22;2661;50.786;12.728;2023-07-28T08:24:06;20.20;1.00
5276;DHT22;2661;50.786;12.728;2023-07-28T08:26:33;20.20;1.00
5276;DHT22;2661;50.786;12.728;2023-07-28T08:29:00;20.20;1.00
5276;DHT22;2661;50.786;12.728;2023-07-28T08:31:27;20.10;1.00
5276;DHT22;2661;50.786;12.728;2023-07-28T08:33:53;20.00;1.00
5276;DHT22;2661;50.786;12.728;2023-07-28T08:36:20;20.00;1.00
5276;DHT22;2661;50.786;12.728;2023-07-28T08:38:47;20.00;1.00
5276;DHT22;2661;50.786;12.728;2023-07-28T08:41:14;20.10;99.90
5276;DHT22;2661;50.786;12.728;2023-07-28T08:43:40;20.10;9.60
5276;DHT22;2661;50.786;12.728;2023-07-28T08:46:08;20.00;1.00
5276;DHT22;2661;50.786;12.728;2023-07-28T08:48:34;20.00;1.00
5276;DHT22;2661;50.786;12.728;2023-07-28T08:51:02;19.90;99.90
5276;DHT22;2661;50.786;12.728;2023-07-28T08:53:30;20.00;99.90
5276;DHT22;2661;50.786;12.728;2023-07-28T08:55:57;20.20;99.90
5276;DHT22;2661;50.786;12.728;2023-07-28T08:58:24;20.40;1.00
5276;DHT22;2661;50.786;12.728;2023-07-28T09:00:51;20.50;1.00
5276;DHT22;2661;50.786;12.728;2023-07-28T09:03:19;20.60;1.00
5276;DHT22;2661;50.786;12.728;2023-07-28T09:05:46;20.70;1.00
5276;DHT22;2661;50.786;12.728;2023-07-28T09:08:13;20.80;1.00
5276;DHT22;2661;50.786;12.728;2023-07-28T09:10:40;20.80;1.00
5276;DHT22;2661;50.786;12.728;2023-07-28T09:13:09;20.70;1.00
5276;DHT22;2661;50.786;12.728;2023-07-28T09:15:35;20.70;1.00
5276;DHT22;2661;50.786;12.728;2023-07-28T09:18:02;20.70;1.00
5276;DHT22;2661;50.786;12.728;2023-07-28T09:20:35;20.80;1.00
5276;DHT22;2661;50.786;12.728;2023-07-28T09:23:03;20.80;1.00
5276;DHT22;2661;50.786;12.728;2023-07-28T09:25:29;20.90;1.00
5276;DHT22;2661;50.786;12.728;2023-07-28T09:27:56;21.10;99.90
5276;DHT22;2661;50.786;12.728;2023-07-28T09:30:24;21.30;99.90
5276;DHT22;2661;50.786;12.728;2023-07-28T09:32:51;21.40;1.00
5276;DHT22;2661;50.786;12.728;2023-07-28T09:35:19;21.50;99.90
5276;DHT22;2661;50.786;12.728;2023-07-28T09:37:46;21.70;99.90
5276;DHT22;2661;50.786;12.728;2023-07-28T09:40:17;21.70;99.90
5276;DHT22;2661;50.786;12.728;2023-07-28T09:42:44;21.80;1.00
5276;DHT22;2661;50.786;12.728;2023-07-28T09:45:11;21.90;1.00
5276;DHT22;2661;50.786;12.728;2023-07-28T09:47:57;21.80;1.00
5276;DHT22;2661;50.786;12.728;2023-07-28T09:50:24;21.60;1.00
5276;DHT22;2661;50.786;12.728;2023-07-28T09:52:53;21.30;99.90
5276;DHT22;2661;50.786;12.728;2023-07-28T09:55:21;21.00;99.90
5276;DHT22;2661;50.786;12.728;2023-07-28T09:57:52;20.80;1.00
5276;DHT22;2661;50.786;12.728;2023-07-28T10:00:20;20.70;99.90
5276;DHT22;2661;50.786;12.728;2023-07-28T10:02:48;20.50;1.00
5276;DHT22;2661;50.786;12.728;2023-07-28T10:05:15;20.40;1.00
5276;DHT22;2661;50.786;12.728;2023-07-28T10:07:45;20.20;99.90
5276;DHT22;2661;50.786;12.728;2023-07-28T10:10:13;20.00;99.90
5276;DHT22;2661;50.786;12.728;2023-07-28T10:15:19;20.20;99.90
5276;DHT22;2661;50.786;12.728;2023-07-28T10:17:47;20.50;99.90
5276;DHT22;2661;50.786;12.728;2023-07-28T10:20:27;20.70;99.90
5276;DHT22;2661;50.786;12.728;2023-07-28T10:23:01;20.90;99.90
5276;DHT22;2661;50.786;12.728;2023-07-28T10:25:28;21.20;99.90
5276;DHT22;2661;50.786;12.728;2023-07-28T10:27:58;21.20;99.90
5276;DHT22;2661;50.786;12.728;2023-07-28T10:30:24;21.40;1.00
5276;DHT22;2661;50.786;12.728;2023-07-28T10:32:51;21.30;1.00
5276;DHT22;2661;50.786;12.728;2023-07-28T10:35:27;21.20;99.90
5276;DHT22;2661;50.786;12.728;2023-07-28T10:37:55;21.10;56.70
5276;DHT22;2661;50.786;12.728;2023-07-28T10:40:35;21.10;99.90
5276;DHT22;2661;50.786;12.728;2023-07-28T10:43:02;21.10;99.40
5276;DHT22;2661;50.786;12.728;2023-07-28T10:45:30;21.20;99.90
5276;DHT22;2661;50.786;12.728;2023-07-28T10:47:57;21.30;99.90
5276;DHT22;2661;50.786;12.728;2023-07-28T10:50:29;21.50;99.90
5276;DHT22;2661;50.786;12.728;2023-07-28T10:52:56;21.70;99.90
5276;DHT22;2661;50.786;12.728;2023-07-28T10:55:24;21.80;99.90
5276;DHT22;2661;50.786;12.728;2023-07-28T10:57:51;21.80;99.90
5276;DHT22;2661;50.786;12.728;2023-07-28T11:00:19;21.80;99.90
5276;DHT22;2661;50.786;12.728;2023-07-28T11:02:47;21.80;99.90
5276;DHT22;2661;50.786;12.728;2023-07-28T11:07:49;21.90;56.90
5276;DHT22;2661;50.786;12.728;2023-07-28T11:10:15;21.90;99.90
5276;DHT22;2661;50.786;12.728;2023-07-28T11:12:43;21.90;99.90
5276;DHT22;2661;50.786;12.728;2023-07-28T11:15:11;21.90;99.90
5276;DHT22;2661;50.786;12.728;2023-07-28T11:17:38;21.80;1.00
5276;DHT22;2661;50.786;12.728;2023-07-28T11:20:40;21.80;99.90
5276;DHT22;2661;50.786;12.728;2023-07-28T11:23:00;21.90;99.90
5276;DHT22;2661;50.786;12.728;2023-07-28T11:25:27;21.90;99.90
5276;DHT22;2661;50.786;12.728;2023-07-28T11:27:55;21.90;1.00
5276;DHT22;2661;50.786;12.728;2023-07-28T11:30:22;21.90;1.00
5276;DHT22;2661;50.786;12.728;2023-07-28T11:32:50;21.80;1.00
5276;DHT22;2661;50.786;12.728;2023-07-28T11:35:17;21.90;99.90
5276;DHT22;2661;50.786;12.728;2023-07-28T11:37:46;21.90;1.00
5276;DHT22;2661;50.786;12.728;2023-07-28T11:40:14;21.90;99.90
5276;DHT22;2661;50.786;12.728;2023-07-28T11:42:41;21.90;1.00
5276;DHT22;2661;50.786;12.728;2023-07-28T11:45:10;21.90;1.00
5276;DHT22;2661;50.786;12.728;2023-07-28T11:47:37;22.10;27.50
5276;DHT22;2661;50.786;12.728;2023-07-28T11:50:04;22.20;99.90
5276;DHT22;2661;50.786;12.728;2023-07-28T11:52:34;22.30;96.20
5276;DHT22;2661;50.786;12.728;2023-07-28T11:55:02;22.30;1.00
5276;DHT22;2661;50.786;12.728;2023-07-28T11:57:29;22.40;99.90
5276;DHT22;2661;50.786;12.728;2023-07-28T11:59:59;22.40;1.00
5276;DHT22;2661;50.786;12.728;2023-07-28T12:02:27;22.30;1.00
5276;DHT22;2661;50.786;12.728;2023-07-28T12:04:54;22.20;1.00
5276;DHT22;2661;50.786;12.728;2023-07-28T12:07:28;22.20;99.90
5276;DHT22;2661;50.786;12.728;2023-07-28T12:09:56;22.30;30.50
5276;DHT22;2661;50.786;12.728;2023-07-28T12:12:30;22.30;99.90
5276;DHT22;2661;50.786;12.728;2023-07-28T12:15:21;22.40;1.00
5276;DHT22;2661;50.786;12.728;2023-07-28T12:20:39;22.30;87.60
5276;DHT22;2661;50.786;12.728;2023-07-28T12:23:07;22.30;99.90
5276;DHT22;2661;50.786;12.728;2023-07-28T12:25:37;22.30;99.90
5276;DHT22;2661;50.786;12.728;2023-07-28T12:28:04;22.30;99.90
5276;DHT22;2661;50.786;12.728;2023-07-28T12:30:32;22.40;13.20
5276;DHT22;2661;50.786;12.728;2023-07-28T12:32:59;22.50;99.90
5276;DHT22;2661;50.786;12.728;2023-07-28T12:35:28;22.70;99.90
5276;DHT22;2661;50.786;12.728;2023-07-28T12:38:01;22.90;99.90
5276;DHT22;2661;50.786;12.728;2023-07-28T12:40:51;23.10;99.90
5276;DHT22;2661;50.786;12.728;2023-07-28T12:43:21;23.20;99.90
5276;DHT22;2661;50.786;12.728;2023-07-28T12:45:51;23.30;99.90
5276;DHT22;2661;50.786;12.728;2023-07-28T12:48:22;23.30;99.90
5276;DHT22;2661;50.786;12.728;2023-07-28T12:50:49;23.20;99.90
5276;DHT22;2661;50.786;12.728;2023-07-28T12:53:16;23.10;1.00
5276;DHT22;2661;50.786;12.728;2023-07-28T12:55:48;23.20;99.90
5276;DHT22;2661;50.786;12.728;2023-07-28T12:58:17;23.20;99.90
5276;DHT22;2661;50.786;12.728;2023-07-28T13:00:47;23.30;99.90
5276;DHT22;2661;50.786;12.728;2023-07-28T13:03:16;23.20;99.90
5276;DHT22;2661;50.786;12.728;2023-07-28T13:05:43;23.40;99.90
5276;DHT22;2661;50.786;12.728;2023-07-28T13:08:10;23.40;99.90
5276;DHT22;2661;50.786;12.728;2023-07-28T13:10:37;23.60;99.90
5276;DHT22;2661;50.786;12.728;2023-07-28T13:13:07;23.60;99.90
5276;DHT22;2661;50.786;12.728;2023-07-28T13:15:39;23.60;99.90
5276;DHT22;2661;50.786;12.728;2023-07-28T13:18:06;23.60;99.90
5276;DHT22;2661;50.786;12.728;2023-07-28T13:20:32;23.70;99.90
5276;DHT22;2661;50.786;12.728;2023-07-28T13:22:59;23.80;99.90
5276;DHT22;2661;50.786;12.728;2023-07-28T13:25:26;23.80;1.00
5276;DHT22;2661;50.786;12.728;2023-07-28T13:27:52;23.70;99.90
5276;DHT22;2661;50.786;12.728;2023-07-28T13:30:20;23.60;1.00
5276;DHT22;2661;50.786;12.728;2023-07-28T13:32:46;23.40;99.90
5276;DHT22;2661;50.786;12.728;2023-07-28T13:35:13;23.20;1.00
5276;DHT22;2661;50.786;12.728;2023-07-28T13:37:41;23.10;1.00
5276;DHT22;2661;50.786;12.728;2023-07-28T13:40:08;22.90;99.90
5276;DHT22;2661;50.786;12.728;2023-07-28T13:42:38;22.80;1.00
5276;DHT22;2661;50.786;12.728;2023-07-28T13:45:05;22.50;1.00
5276;DHT22;2661;50.786;12.728;2023-07-28T13:47:32;22.40;1.00
5276;DHT22;2661;50.786;12.728;2023-07-28T13:49:58;22.30;1.00
5276;DHT22;2661;50.786;12.728;2023-07-28T13:52:25;22.20;99.90
5276;DHT22;2661;50.786;12.728;2023-07-28T13:54:52;22.20;99.90
5276;DHT22;2661;50.786;12.728;2023-07-28T13:57:21;22.10;99.90
5276;DHT22;2661;50.786;12.728;2023-07-28T13:59:48;22.00;99.90
5276;DHT22;2661;50.786;12.728;2023-07-28T14:02:18;21.90;99.90
5276;DHT22;2661;50.786;12.728;2023-07-28T14:04:45;21.80;99.90
5276;DHT22;2661;50.786;12.728;2023-07-28T14:07:11;21.80;99.90
5276;DHT22;2661;50.786;12.728;2023-07-28T14:09:38;21.70;84.20
5276;DHT22;2661;50.786;12.728;2023-07-28T14:12:05;21.70;1.00
5276;DHT22;2661;50.786;12.728;2023-07-28T14:14:32;21.70;99.90
5276;DHT22;2661;50.786;12.728;2023-07-28T14:16:59;21.70;99.90
5276;DHT22;2661;50.786;12.728;2023-07-28T14:19:26;21.60;99.90
5276;DHT22;2661;50.786;12.728;2023-07-28T14:21:52;21.60;99.90
5276;DHT22;2661;50.786;12.728;2023-07-28T14:24:19;21.60;99.90
5276;DHT22;2661;50.786;12.728;2023-07-28T14:26:46;21.60;99.90
5276;DHT22;2661;50.786;12.728;2023-07-28T14:29:13;21.60;99.90
5276;DHT22;2661;50.786;12.728;2023-07-28T14:31:39;21.60;1.00
5276;DHT22;2661;50.786;12.728;2023-07-28T14:34:06;21.80;1.00
5276;DHT22;2661;50.786;12.728;2023-07-28T14:36:33;21.90;1.00
5276;DHT22;2661;50.786;12.728;2023-07-28T14:39:02;22.20;1.00
5276;DHT22;2661;50.786;12.728;2023-07-28T14:41:29;22.30;99.90
5276;DHT22;2661;50.786;12.728;2023-07-28T14:43:55;22.30;99.90
5276;DHT22;2661;50.786;12.728;2023-07-28T14:46:22;22.40;1.00
5276;DHT22;2661;50.786;12.728;2023-07-28T14:48:51;22.40;99.90
5276;DHT22;2661;50.786;12.728;2023-07-28T14:51:18;22.40;1.00
5276;DHT22;2661;50.786;12.728;2023-07-28T14:53:44;22.50;1.00
5276;DHT22;2661;50.786;12.728;2023-07-28T14:56:15;22.60;1.00
5276;DHT22;2661;50.786;12.728;2023-07-28T14:58:42;22.50;1.00
5276;DHT22;2661;50.786;12.728;2023-07-28T15:01:11;22.40;1.00
5276;DHT22;2661;50.786;12.728;2023-07-28T15:03:39;22.50;1.00
5276;DHT22;2661;50.786;12.728;2023-07-28T15:06:07;22.60;1.00
5276;DHT22;2661;50.786;12.728;2023-07-28T15:08:34;22.70;1.00
5276;DHT22;2661;50.786;12.728;2023-07-28T15:11:01;22.80;99.90
5276;DHT22;2661;50.786;12.728;2023-07-28T15:13:27;22.90;1.00
5276;DHT22;2661;50.786;12.728;2023-07-28T15:15:54;23.10;99.90
5276;DHT22;2661;50.786;12.728;2023-07-28T15:18:21;23.10;1.00
5276;DHT22;2661;50.786;12.728;2023-07-28T15:20:48;23.20;1.00
5276;DHT22;2661;50.786;12.728;2023-07-28T15:23:14;23.30;99.90
5276;DHT22;2661;50.786;12.728;2023-07-28T15:25:41;23.40;1.00
5276;DHT22;2661;50.786;12.728;2023-07-28T15:28:13;23.60;1.00
5276;DHT22;2661;50.786;12.728;2023-07-28T15:30:39;23.90;1.00
5276;DHT22;2661;50.786;12.728;2023-07-28T15:33:11;24.00;1.00
5276;DHT22;2661;50.786;12.728;2023-07-28T15:35:37;24.10;1.00
5276;DHT22;2661;50.786;12.728;2023-07-28T15:38:04;24.20;1.00
5276;DHT22;2661;50.786;12.728;2023-07-28T15:40:31;24.30;1.00
5276;DHT22;2661;50.786;12.728;2023-07-28T15:42:57;24.30;1.00
5276;DHT22;2661;50.786;12.728;2023-07-28T15:45:24;24.40;1.00
5276;DHT22;2661;50.786;12.728;2023-07-28T15:47:50;24.30;1.00
5276;DHT22;2661;50.786;12.728;2023-07-28T15:50:17;24.30;1.00
5276;DHT22;2661;50.786;12.728;2023-07-28T15:52:44;24.20;1.00
5276;DHT22;2661;50.786;12.728;2023-07-28T15:55:11;24.20;1.00
5276;DHT22;2661;50.786;12.728;2023-07-28T15:57:37;24.20;1.00
5276;DHT22;2661;50.786;12.728;2023-07-28T16:00:04;24.30;1.00
5276;DHT22;2661;50.786;12.728;2023-07-28T16:02:32;24.20;98.70
5276;DHT22;2661;50.786;12.728;2023-07-28T16:04:58;24.10;20.80
5276;DHT22;2661;50.786;12.728;2023-07-28T16:07:25;23.90;96.50
5276;DHT22;2661;50.786;12.728;2023-07-28T16:09:51;23.70;1.00